aviador You're here:

KWVL Decoded Metar

WATERVILLE in ME, USA
Report Time2017-09-26 02:56:00
UTC Time2017-09-26 03:38:28
Flight Rules vfr VFR
Wind200° at 04 kt
W.Decomp.*RWY 23: 3.9 kt HW 0.8 kt LCW
RWY 14: 0.8 kt HW 3.9 kt RCW
W.Rank200° ranks 1
Current wind is below 200° avg. (4.9)
Visibility9999 m
Phenomena:N/A
Clouds:N/A
Expected CloudBase > 400 ft AGL from Temp-Dew spread
CeilingNone
Temp20°C (ISA +6)
Dew Point19°C (94% RH)
QNH1017 hPa
Density Alt1,148 ft
Elevation331 ft
Report Wrong Elevation
Raw Report
METAR KWVL 260256Z AUTO 20004KT 10SM CLR 20/19 A3002 RMK AO2 SLP189
T02000189 58005=

Extra information for KWVL:More info

Metar Taf Metar & Taf Last 4 Metars F.Rules Stats Wind Profile Meteogram Temp Stats Airport Information Weather charts Add Link Nearby VenuesMetar ALERT Operation Metar Decoded Social comments

AIRNAV info for KWVL